Time;durP1;ratioP1;P1;durP2;ratioP2;P2;SDS_P1;SDS_P2;PMS_P1;PMS_P2;Temp;Humidity;BMP_temperature;BMP_pressure;BME280_temperature;BME280_humidity;BME280_pressure;Samples;Min_cycle;Max_cycle;Signal;HPM_P1;HPM_P2
2022/08/20 00:02:21;;;;;;;5.70;2.60;;;17.30;99.90;;;;;;5054575;28;20018;-78
2022/08/20 00:04:47;;;;;;;3.58;2.10;;;17.10;99.90;;;;;;5054829;28;20029;-78
2022/08/20 00:07:13;;;;;;;5.90;2.30;;;16.90;99.90;;;;;;5055050;28;20116;-78
2022/08/20 00:09:40;;;;;;;6.32;2.20;;;17.00;99.90;;;;;;5054009;28;20010;-78
2022/08/20 00:12:06;;;;;;;8.88;2.40;;;17.00;99.90;;;;;;5053934;28;20005;-78
2022/08/20 00:14:32;;;;;;;9.05;2.75;;;17.00;99.90;;;;;;5052413;28;20081;-78
2022/08/20 00:16:58;;;;;;;5.90;2.20;;;17.00;99.90;;;;;;5050909;28;20022;-78
2022/08/20 00:19:24;;;;;;;8.90;2.50;;;17.00;99.90;;;;;;5052488;28;20032;-78
2022/08/20 00:21:49;;;;;;;6.45;2.95;;;16.90;99.90;;;;;;5053831;28;20044;-78
2022/08/20 00:24:15;;;;;;;7.18;2.75;;;17.00;99.90;;;;;;5045653;28;20072;-78
2022/08/20 00:26:41;;;;;;;9.60;2.53;;;17.10;99.90;;;;;;5044118;28;20014;-78
2022/08/20 00:29:06;;;;;;;7.20;2.45;;;17.10;99.90;;;;;;5053421;28;20022;-78
2022/08/20 00:31:32;;;;;;;4.03;2.28;;;17.10;99.90;;;;;;5052400;28;20045;-78
2022/08/20 00:33:57;;;;;;;8.50;2.72;;;17.10;99.90;;;;;;5052167;28;20080;-78
2022/08/20 00:36:23;;;;;;;7.50;2.50;;;17.00;99.90;;;;;;5051361;28;20050;-78
2022/08/20 00:38:49;;;;;;;5.22;2.47;;;17.00;99.90;;;;;;5051169;28;20034;-78
2022/08/20 00:41:21;;;;;;;7.63;2.72;;;16.90;99.90;;;;;;5052138;28;20021;-78
2022/08/20 00:44:08;;;;;;;6.55;2.55;;;16.90;99.90;;;;;;5050989;28;20041;-78
2022/08/20 00:46:34;;;;;;;11.63;3.15;;;17.00;99.90;;;;;;5051895;28;20034;-78
2022/08/20 00:49:02;;;;;;;8.00;3.17;;;17.00;99.90;;;;;;5053057;28;20029;-78
2022/08/20 00:51:42;;;;;;;8.27;2.67;;;17.10;99.90;;;;;;5054407;28;20027;-78
2022/08/20 00:54:10;;;;;;;8.63;2.40;;;17.10;99.90;;;;;;5053380;28;20032;-78
2022/08/20 00:56:37;;;;;;;6.45;2.42;;;17.10;99.90;;;;;;5053988;28;20068;-78
2022/08/20 00:59:10;;;;;;;10.05;2.60;;;17.10;99.90;;;;;;5052321;28;20073;-79
2022/08/20 01:01:38;;;;;;;8.52;2.10;;;17.10;99.90;;;;;;5053399;28;20030;-78
2022/08/20 01:04:04;;;;;;;9.13;2.13;;;17.10;99.90;;;;;;5049212;28;20121;-78
2022/08/20 01:06:30;;;;;;;6.22;1.90;;;17.10;99.90;;;;;;5053575;28;20017;-78
2022/08/20 01:08:56;;;;;;;7.80;2.38;;;17.00;99.90;;;;;;5053709;28;20044;-78
2022/08/20 01:11:31;;;;;;;7.47;2.38;;;17.00;99.90;;;;;;5053884;28;20037;-78
2022/08/20 01:13:57;;;;;;;9.05;2.63;;;17.00;99.90;;;;;;5053124;28;20033;-78
2022/08/20 01:16:28;;;;;;;9.57;2.83;;;16.90;99.90;;;;;;5049846;28;20013;-78
2022/08/20 01:18:56;;;;;;;5.78;2.30;;;16.90;99.90;;;;;;5052162;28;20090;-78
2022/08/20 01:21:26;;;;;;;6.85;2.35;;;16.80;99.90;;;;;;5052613;28;20048;-78
2022/08/20 01:24:01;;;;;;;9.82;2.40;;;16.80;99.90;;;;;;5053070;28;20037;-78
2022/08/20 01:26:36;;;;;;;8.18;2.00;;;16.80;99.90;;;;;;5045875;28;20026;-77
2022/08/20 01:29:14;;;;;;;5.10;1.63;;;16.70;99.90;;;;;;5056490;28;20041;-78
2022/08/20 01:31:41;;;;;;;11.73;2.08;;;16.70;99.90;;;;;;5050732;28;20029;-78
2022/08/20 01:34:13;;;;;;;9.00;1.95;;;16.70;99.90;;;;;;5056047;28;20030;-78
2022/08/20 01:36:45;;;;;;;6.97;2.00;;;16.60;99.90;;;;;;5050643;28;20073;-78
2022/08/20 01:39:14;;;;;;;8.38;2.03;;;16.40;99.90;;;;;;5055688;28;20059;-78
2022/08/20 01:42:11;;;;;;;7.20;2.20;;;16.50;99.90;;;;;;5055517;28;20342;-78
2022/08/20 01:44:41;;;;;;;7.53;1.80;;;16.60;99.90;;;;;;5043013;28;20026;-78
2022/08/20 01:47:20;;;;;;;9.52;1.80;;;16.60;99.90;;;;;;5053444;28;20289;-78
2022/08/20 01:49:55;;;;;;;7.05;1.90;;;16.60;99.90;;;;;;5056414;28;20022;-78
2022/08/20 01:52:40;;;;;;;7.57;1.95;;;16.50;99.90;;;;;;5056855;28;20032;-79
2022/08/20 01:55:07;;;;;;;7.90;1.77;;;16.40;99.90;;;;;;5056194;28;20017;-78
2022/08/20 01:57:34;;;;;;;7.40;1.60;;;16.30;99.90;;;;;;5056247;28;20021;-77
2022/08/20 02:00:00;;;;;;;5.70;1.92;;;16.20;99.90;;;;;;5055276;28;20018;-78
2022/08/20 02:02:27;;;;;;;5.88;1.83;;;16.10;99.90;;;;;;5055924;28;20034;-78
2022/08/20 02:04:53;;;;;;;7.95;1.80;;;15.90;99.90;;;;;;5056055;28;20045;-78
2022/08/20 02:07:21;;;;;;;6.65;1.80;;;15.80;99.90;;;;;;5056165;28;20073;-78
2022/08/20 02:09:48;;;;;;;6.55;2.47;;;15.70;99.90;;;;;;5056066;28;20017;-78
2022/08/20 02:12:13;;;;;;;4.78;1.63;;;15.60;99.90;;;;;;5055758;28;20072;-78
2022/08/20 02:14:50;;;;;;;5.60;1.80;;;15.40;99.90;;;;;;5056343;28;20009;-78
2022/08/20 02:17:17;;;;;;;4.97;1.58;;;15.30;99.90;;;;;;5055719;28;20017;-78
2022/08/20 02:19:48;;;;;;;4.93;1.90;;;15.10;99.90;;;;;;5049048;28;20056;-78
2022/08/20 02:22:23;;;;;;;6.13;1.90;;;15.10;99.90;;;;;;5045388;28;20376;-78
2022/08/20 02:24:48;;;;;;;6.65;1.98;;;15.00;99.90;;;;;;5046197;28;20033;-78
2022/08/20 02:27:14;;;;;;;6.22;1.77;;;14.90;99.90;;;;;;5051674;28;20045;-78
2022/08/20 02:29:40;;;;;;;7.53;1.95;;;14.90;99.90;;;;;;5055478;28;20037;-78
2022/08/20 02:32:07;;;;;;;8.23;1.92;;;14.80;99.90;;;;;;5056169;28;20085;-78
2022/08/20 02:34:33;;;;;;;12.43;2.17;;;14.80;99.90;;;;;;5047292;28;20433;-77
2022/08/20 02:37:00;;;;;;;5.63;1.90;;;14.90;99.90;;;;;;5053521;28;20041;-78
2022/08/20 02:39:26;;;;;;;4.40;1.80;;;14.90;99.90;;;;;;5053363;28;20104;-78
2022/08/20 02:41:52;;;;;;;8.73;2.10;;;14.70;99.90;;;;;;5053993;28;20040;-78
2022/08/20 02:44:20;;;;;;;5.82;1.75;;;14.60;99.90;;;;;;5052717;28;20060;-77
2022/08/20 02:46:47;;;;;;;6.47;1.75;;;14.50;99.90;;;;;;5052191;28;20022;-78
2022/08/20 02:49:13;;;;;;;5.28;1.83;;;14.50;99.90;;;;;;5053086;28;20021;-78
2022/08/20 02:51:39;;;;;;;5.57;2.10;;;14.40;99.90;;;;;;5055035;28;20060;-78
2022/08/20 02:54:04;;;;;;;4.68;1.92;;;14.40;99.90;;;;;;5053421;28;20029;-78
2022/08/20 02:56:30;;;;;;;8.70;1.83;;;14.30;99.90;;;;;;5052940;28;20532;-77
2022/08/20 02:58:55;;;;;;;6.05;1.95;;;14.20;99.90;;;;;;5052132;28;20075;-78
2022/08/20 03:01:21;;;;;;;7.80;1.90;;;14.20;99.90;;;;;;5051920;28;20092;-78
2022/08/20 03:03:47;;;;;;;6.57;1.77;;;14.00;99.90;;;;;;5052000;28;20030;-78
2022/08/20 03:06:13;;;;;;;4.65;1.73;;;13.90;99.90;;;;;;5054059;28;20033;-78
2022/08/20 03:08:39;;;;;;;8.40;2.03;;;13.80;99.90;;;;;;5054465;28;20033;-78
2022/08/20 03:11:05;;;;;;;5.25;1.55;;;13.70;99.90;;;;;;5054181;28;20057;-78
2022/08/20 03:13:31;;;;;;;7.15;1.70;;;13.70;99.90;;;;;;5054624;28;20036;-78
2022/08/20 03:15:59;;;;;;;9.43;1.52;;;13.60;99.90;;;;;;5036818;28;20025;-77
2022/08/20 03:18:30;;;;;;;8.80;1.75;;;13.60;99.90;;;;;;5050903;28;20081;-78
2022/08/20 03:20:55;;;;;;;7.07;2.22;;;13.50;99.90;;;;;;5054414;28;20033;-77
2022/08/20 03:23:21;;;;;;;7.15;1.83;;;13.50;99.90;;;;;;5053825;28;20048;-78
2022/08/20 03:25:47;;;;;;;6.15;1.90;;;13.40;99.90;;;;;;5055049;28;20051;-78
2022/08/20 03:28:14;;;;;;;5.57;1.52;;;13.40;99.90;;;;;;5054268;28;20060;-78
2022/08/20 03:30:41;;;;;;;7.05;1.80;;;13.30;99.90;;;;;;5052219;28;20029;-77
2022/08/20 03:33:07;;;;;;;4.03;2.00;;;13.30;99.90;;;;;;5052782;28;20025;-78
2022/08/20 03:35:34;;;;;;;8.90;2.08;;;13.20;99.90;;;;;;5050443;28;20049;-77
2022/08/20 03:38:04;;;;;;;6.07;1.77;;;13.10;99.90;;;;;;5049686;28;20064;-78
2022/08/20 03:40:32;;;;;;;6.43;1.88;;;13.00;99.90;;;;;;5049089;28;20037;-77
2022/08/20 03:42:58;;;;;;;5.40;1.80;;;13.00;99.90;;;;;;5049785;28;20029;-78
2022/08/20 03:45:25;;;;;;;7.70;2.15;;;13.00;99.90;;;;;;5050532;28;20074;-78
2022/08/20 03:47:52;;;;;;;4.68;1.95;;;12.90;99.90;;;;;;5049521;28;20037;-77
2022/08/20 03:50:23;;;;;;;9.68;2.35;;;12.80;99.90;;;;;;5052811;28;20029;-77
2022/08/20 03:52:49;;;;;;;7.05;1.95;;;12.80;99.90;;;;;;5042591;28;20034;-78
2022/08/20 03:55:15;;;;;;;10.15;2.20;;;12.70;1.00;;;;;;5051186;28;20132;-77
2022/08/20 03:57:47;;;;;;;9.15;2.20;;;12.60;1.00;;;;;;5050897;28;20572;-78
2022/08/20 04:00:14;;;;;;;8.30;2.03;;;12.60;99.90;;;;;;5048347;28;20040;-78
2022/08/20 04:02:40;;;;;;;9.65;2.05;;;12.60;1.00;;;;;;5047948;28;20025;-77
2022/08/20 04:05:06;;;;;;;6.18;1.90;;;12.60;1.00;;;;;;5047432;28;20025;-77
2022/08/20 04:07:32;;;;;;;6.78;2.15;;;12.50;1.00;;;;;;5047911;28;20081;-78
2022/08/20 04:09:58;;;;;;;6.40;2.47;;;12.40;1.00;;;;;;5046423;28;20030;-78
2022/08/20 04:12:24;;;;;;;8.75;2.00;;;12.40;1.00;;;;;;5046407;28;20032;-77
2022/08/20 04:14:51;;;;;;;9.43;1.98;;;12.30;1.00;;;;;;5044172;28;20389;-77
2022/08/20 04:17:19;;;;;;;3.90;1.60;;;12.30;1.00;;;;;;5041096;28;20026;-77
2022/08/20 04:19:44;;;;;;;6.75;1.77;;;12.30;1.00;;;;;;5046459;28;20029;-77
2022/08/20 04:22:13;;;;;;;5.97;1.80;;;12.20;99.90;;;;;;5048748;28;20036;-78
2022/08/20 04:24:41;;;;;;;3.75;1.88;;;12.20;1.00;;;;;;5050117;28;21068;-77
2022/08/20 04:27:07;;;;;;;7.35;2.22;;;12.30;1.00;;;;;;5048410;28;20436;-77
2022/08/20 04:29:35;;;;;;;8.70;2.00;;;12.20;1.00;;;;;;5046557;28;20056;-77
2022/08/20 04:32:01;;;;;;;5.35;1.67;;;12.20;1.00;;;;;;5044847;28;20018;-78
2022/08/20 04:34:28;;;;;;;6.57;2.20;;;12.20;1.00;;;;;;5046495;28;20060;-77
2022/08/20 04:36:53;;;;;;;5.28;2.08;;;12.10;1.00;;;;;;5043473;28;20106;-78
2022/08/20 04:39:19;;;;;;;7.22;1.90;;;12.30;1.00;;;;;;5040864;28;20029;-77
2022/08/20 04:41:45;;;;;;;8.68;2.50;;;12.30;1.00;;;;;;5054272;28;20047;-77
2022/08/20 04:44:10;;;;;;;6.63;2.47;;;12.30;1.00;;;;;;5042451;28;20389;-77
2022/08/20 04:46:37;;;;;;;8.60;3.05;;;12.30;1.00;;;;;;5042835;28;20051;-77
2022/08/20 04:49:04;;;;;;;7.18;3.47;;;12.30;1.00;;;;;;5044829;28;20029;-77
2022/08/20 04:51:30;;;;;;;8.43;3.42;;;12.40;1.00;;;;;;5048904;28;20029;-77
2022/08/20 04:53:56;;;;;;;5.22;2.83;;;12.40;1.00;;;;;;5047785;28;20026;-78
2022/08/20 04:56:29;;;;;;;10.90;3.72;;;12.30;1.00;;;;;;5046871;28;20032;-77
2022/08/20 04:58:57;;;;;;;10.45;4.00;;;12.30;1.00;;;;;;5040331;28;20057;-77
2022/08/20 05:01:24;;;;;;;5.00;2.92;;;12.30;1.00;;;;;;5037908;28;20060;-77
2022/08/20 05:03:53;;;;;;;7.85;3.80;;;12.30;1.00;;;;;;5051565;28;20018;-77
2022/08/20 05:06:20;;;;;;;7.45;3.08;;;12.40;1.00;;;;;;5055513;28;20025;-78
2022/08/20 05:08:46;;;;;;;6.65;2.97;;;12.40;1.00;;;;;;5051677;28;20085;-78
2022/08/20 05:11:13;;;;;;;6.82;3.25;;;12.40;1.00;;;;;;5050520;28;20378;-78
2022/08/20 05:13:39;;;;;;;10.43;3.45;;;12.50;1.00;;;;;;5046631;28;20021;-78
2022/08/20 05:16:05;;;;;;;6.10;2.80;;;12.50;1.00;;;;;;5046419;28;20136;-78
2022/08/20 05:18:32;;;;;;;7.57;3.10;;;12.70;1.00;;;;;;5049720;28;20047;-78
2022/08/20 05:21:03;;;;;;;8.38;3.50;;;12.60;1.00;;;;;;5051784;28;20016;-78
2022/08/20 05:23:28;;;;;;;9.82;3.35;;;12.70;1.00;;;;;;5052169;28;20037;-77
2022/08/20 05:25:56;;;;;;;9.38;3.35;;;12.70;1.00;;;;;;5052648;28;20021;-77
2022/08/20 05:28:31;;;;;;;6.35;3.20;;;13.00;1.00;;;;;;5046356;28;20048;-78
2022/08/20 05:30:59;;;;;;;6.30;3.40;;;13.20;1.00;;;;;;5048090;28;20139;-78
2022/08/20 05:33:27;;;;;;;7.45;3.50;;;13.30;99.90;;;;;;5048896;28;20017;-77
2022/08/20 05:35:54;;;;;;;9.57;3.47;;;13.60;1.00;;;;;;5041966;28;20096;-78
2022/08/20 05:38:24;;;;;;;7.68;3.58;;;14.70;1.00;;;;;;5044649;28;20020;-79
2022/08/20 05:40:50;;;;;;;;;;;17.20;99.90;;;;;;5053447;28;20014;-79
2022/08/20 05:43:17;;;;;;;6.22;3.25;;;18.20;99.90;;;;;;5058872;28;19912;-80
2022/08/20 05:45:44;;;;;;;5.95;3.03;;;19.00;99.90;;;;;;5058719;28;20037;-79
2022/08/20 05:48:13;;;;;;;7.97;3.08;;;18.30;99.90;;;;;;5052971;28;20072;-79
2022/08/20 05:50:39;;;;;;;9.80;3.60;;;18.90;99.90;;;;;;5055947;28;20013;-80
2022/08/20 05:53:05;;;;;;;7.05;3.28;;;20.10;99.90;;;;;;5049151;28;20018;-80
2022/08/20 05:55:31;;;;;;;8.73;3.20;;;23.00;99.90;;;;;;5055023;28;20075;-79
2022/08/20 05:57:59;;;;;;;6.05;2.50;;;22.60;99.90;;;;;;5059049;28;20073;-80
2022/08/20 06:00:26;;;;;;;4.40;2.53;;;24.70;99.90;;;;;;5058297;28;20024;-80
2022/08/20 06:05:36;;;;;;;7.43;2.70;;;21.80;99.90;;;;;;5050096;28;20036;-80
2022/08/20 06:08:04;;;;;;;5.78;1.92;;;20.30;99.90;;;;;;5054710;28;20029;-81
2022/08/20 06:10:30;;;;;;;6.10;2.05;;;19.50;99.90;;;;;;5050266;28;20021;-80
2022/08/20 06:12:55;;;;;;;9.82;2.15;;;18.90;99.90;;;;;;5057562;28;20030;-80
2022/08/20 06:15:21;;;;;;;4.95;1.70;;;18.60;99.90;;;;;;5058426;28;20017;-80
2022/08/20 06:17:47;;;;;;;6.97;1.75;;;18.40;99.90;;;;;;5058358;28;20024;-80
2022/08/20 06:20:12;;;;;;;5.85;2.00;;;18.30;99.90;;;;;;5041485;28;20068;-80
2022/08/20 06:22:38;;;;;;;4.15;1.63;;;18.30;99.90;;;;;;5058841;28;20281;-80
2022/08/20 06:25:08;;;;;;;3.10;1.63;;;18.30;99.90;;;;;;5058840;28;20041;-80
2022/08/20 06:27:37;;;;;;;;;;;18.20;99.90;;;;;;5058907;28;20140;-80
2022/08/20 06:30:03;;;;;;;5.40;2.00;;;18.20;99.90;;;;;;5058664;28;19897;-80
2022/08/20 06:32:29;;;;;;;5.20;1.88;;;18.30;99.90;;;;;;5058504;28;20025;-79
2022/08/20 06:34:54;;;;;;;7.95;2.38;;;18.30;99.90;;;;;;5058411;28;20056;-80
2022/08/20 06:37:23;;;;;;;7.03;2.15;;;18.50;99.90;;;;;;5052971;28;20044;-80
2022/08/20 06:39:50;;;;;;;6.95;2.20;;;21.30;99.90;;;;;;5058390;28;20047;-79
2022/08/20 06:42:16;;;;;;;4.10;1.60;;;26.80;99.90;;;;;;5058067;28;20024;-80
2022/08/20 06:44:44;;;;;;;5.15;1.73;;;30.30;99.90;;;;;;5058200;28;20029;-80
2022/08/20 06:47:13;;;;;;;7.07;1.85;;;32.40;99.90;;;;;;5057852;28;20014;-80
2022/08/20 06:49:39;;;;;;;4.50;1.50;;;33.60;99.90;;;;;;5058256;28;20052;-80
2022/08/20 06:52:05;;;;;;;3.40;1.30;;;35.00;99.90;;;;;;5058181;28;20021;-80
2022/08/20 06:54:33;;;;;;;7.50;1.70;;;35.80;99.90;;;;;;5058250;28;20037;-80
2022/08/20 06:56:59;;;;;;;5.43;1.52;;;37.00;99.90;;;;;;5058175;28;20025;-80
2022/08/20 06:59:24;;;;;;;6.00;1.50;;;37.80;99.90;;;;;;5057959;28;20088;-80
2022/08/20 07:01:50;;;;;;;5.53;1.55;;;38.40;99.90;;;;;;5058114;28;20018;-80
2022/08/20 07:04:15;;;;;;;5.32;1.10;;;39.10;99.90;;;;;;5057946;28;20013;-80
2022/08/20 07:06:42;;;;;;;7.00;1.25;;;40.10;99.90;;;;;;5057615;28;20178;-81
2022/08/20 07:09:08;;;;;;;5.38;1.27;;;40.20;94.20;;;;;;5057711;28;20041;-81
2022/08/20 07:11:34;;;;;;;6.50;1.50;;;40.80;92.70;;;;;;5057542;28;20013;-81
2022/08/20 07:14:02;;;;;;;5.72;1.30;;;40.30;91.00;;;;;;5057510;28;20013;-81
2022/08/20 07:16:27;;;;;;;5.47;1.35;;;40.80;88.40;;;;;;5055535;28;20013;-81
2022/08/20 07:18:53;;;;;;;6.47;1.45;;;41.50;83.80;;;;;;5046588;28;20088;-81
2022/08/20 07:21:19;;;;;;;5.53;1.55;;;42.40;79.50;;;;;;5057940;28;20036;-81
2022/08/20 07:23:44;;;;;;;4.20;1.30;;;42.80;71.30;;;;;;5057900;28;20022;-81
2022/08/20 07:26:11;;;;;;;5.00;1.23;;;43.70;68.40;;;;;;5057421;28;20013;-81
2022/08/20 07:28:37;;;;;;;5.05;1.40;;;43.70;61.50;;;;;;5057449;28;20036;-81
2022/08/20 07:33:47;;;;;;;4.20;1.23;;;43.70;54.70;;;;;;5057395;28;20029;-81
2022/08/20 07:36:13;;;;;;;5.05;1.30;;;43.70;55.80;;;;;;5052617;28;20098;-82
2022/08/20 07:38:39;;;;;;;5.35;1.25;;;43.70;49.10;;;;;;5048820;28;20029;-81
2022/08/20 07:41:13;;;;;;;5.57;1.70;;;44.40;47.80;;;;;;5057144;28;20056;-81
2022/08/20 07:43:40;;;;;;;6.38;1.33;;;44.80;46.10;;;;;;5057317;28;20044;-81
2022/08/20 07:46:08;;;;;;;5.50;1.40;;;44.20;44.50;;;;;;5057108;28;20044;-81
2022/08/20 07:48:35;;;;;;;5.38;1.75;;;45.40;41.50;;;;;;5057070;28;20051;-81
2022/08/20 07:51:03;;;;;;;4.65;1.27;;;45.10;40.10;;;;;;5057066;28;20068;-81
2022/08/20 07:53:32;;;;;;;9.57;1.50;;;45.60;37.60;;;;;;5044105;28;20014;-81
2022/08/20 07:55:57;;;;;;;6.50;1.42;;;46.20;35.70;;;;;;5057219;28;20030;-81
2022/08/20 07:58:23;;;;;;;3.65;1.25;;;45.60;33.10;;;;;;5056816;28;20053;-82
2022/08/20 08:00:50;;;;;;;6.80;1.58;;;45.70;31.30;;;;;;5056884;28;20010;-82
2022/08/20 08:03:16;;;;;;;5.93;1.30;;;45.70;30.00;;;;;;5056822;28;20006;-81
2022/08/20 08:05:46;;;;;;;5.45;1.60;;;46.00;28.90;;;;;;5056820;28;20041;-81
2022/08/20 08:08:20;;;;;;;5.65;1.77;;;45.60;28.60;;;;;;5056816;28;20045;-82
2022/08/20 08:10:49;;;;;;;7.25;1.55;;;45.20;28.30;;;;;;5056796;28;20018;-82
2022/08/20 08:13:15;;;;;;;5.10;1.25;;;45.80;26.80;;;;;;5056649;28;20013;-81
2022/08/20 08:15:47;;;;;;;6.07;1.63;;;46.30;25.00;;;;;;5056906;28;20069;-81
2022/08/20 08:18:23;;;;;;;5.15;1.50;;;47.00;24.80;;;;;;5056507;28;20034;-81
2022/08/20 08:20:52;;;;;;;5.70;1.42;;;45.30;23.50;;;;;;5056956;28;20037;-81
2022/08/20 08:23:18;;;;;;;;;;;38.80;24.40;;;;;;5056920;28;20014;-81
2022/08/20 08:25:44;;;;;;;6.57;1.70;;;35.60;28.40;;;;;;5056661;28;19923;-81
2022/08/20 08:28:11;;;;;;;5.63;1.30;;;37.40;32.60;;;;;;5056484;28;20162;-82
2022/08/20 08:30:39;;;;;;;6.45;1.65;;;40.90;31.40;;;;;;5056353;28;20048;-82
2022/08/20 08:35:49;;;;;;;6.43;1.55;;;43.50;27.50;;;;;;5055593;28;20045;-81
2022/08/20 08:38:15;;;;;;;4.95;1.25;;;44.20;24.40;;;;;;5056014;28;20029;-81
2022/08/20 08:40:41;;;;;;;4.97;1.50;;;44.00;24.40;;;;;;5056079;28;20026;-81
2022/08/20 08:43:10;;;;;;;6.18;1.45;;;43.30;24.20;;;;;;5056396;28;20017;-81
2022/08/20 08:45:47;;;;;;;4.57;1.40;;;44.30;23.60;;;;;;5055928;28;20028;-81
2022/08/20 08:48:15;;;;;;;3.95;1.33;;;45.00;23.10;;;;;;5055495;28;20060;-81
2022/08/20 08:50:44;;;;;;;3.35;1.00;;;45.30;21.40;;;;;;5056368;28;20024;-81
2022/08/20 08:53:23;;;;;;;;;;;42.40;22.90;;;;;;5056769;28;20025;-81
2022/08/20 08:55:48;;;;;;;4.90;1.40;;;40.50;22.60;;;;;;5056484;28;19897;-81
2022/08/20 08:58:14;;;;;;;3.28;1.10;;;43.90;22.40;;;;;;5055927;28;20083;-82
2022/08/20 09:00:39;;;;;;;4.38;1.23;;;45.20;20.80;;;;;;5056178;28;20026;-81
2022/08/20 09:03:09;;;;;;;6.97;1.42;;;45.60;19.90;;;;;;5056143;28;20013;-81
2022/08/20 09:05:47;;;;;;;5.65;1.38;;;45.10;19.10;;;;;;5055986;28;20073;-81
2022/08/20 09:08:18;;;;;;;5.10;1.70;;;46.20;18.10;;;;;;5056069;28;20036;-81
2022/08/20 09:10:44;;;;;;;8.23;1.50;;;46.70;17.00;;;;;;5055963;28;20070;-81
2022/08/20 09:13:11;;;;;;;6.88;1.30;;;46.30;14.80;;;;;;5055847;28;20026;-81
2022/08/20 09:15:37;;;;;;;6.47;1.30;;;46.00;14.70;;;;;;5056180;28;20014;-81
2022/08/20 09:18:03;;;;;;;4.07;1.40;;;45.80;15.20;;;;;;5056022;28;20037;-81
2022/08/20 09:20:29;;;;;;;4.43;1.20;;;45.80;15.20;;;;;;5056020;28;20045;-81
2022/08/20 09:22:55;;;;;;;6.10;1.35;;;46.30;13.30;;;;;;5055719;28;20009;-81
2022/08/20 09:25:21;;;;;;;6.05;1.30;;;46.20;12.90;;;;;;5055725;28;20017;-81
2022/08/20 09:27:47;;;;;;;5.32;1.50;;;45.60;12.70;;;;;;5055885;28;20021;-81
2022/08/20 09:30:14;;;;;;;5.78;1.50;;;44.90;13.50;;;;;;5056665;28;20022;-81
2022/08/20 09:32:40;;;;;;;6.22;1.30;;;45.10;13.70;;;;;;5056708;28;20090;-81
2022/08/20 09:35:06;;;;;;;4.70;1.23;;;44.30;13.00;;;;;;5056591;28;20009;-81
2022/08/20 09:37:32;;;;;;;5.53;1.52;;;45.30;12.40;;;;;;5056699;28;20059;-81
2022/08/20 09:39:58;;;;;;;4.90;1.25;;;44.90;12.80;;;;;;5056639;28;20022;-81
2022/08/20 09:42:27;;;;;;;5.20;1.60;;;45.60;11.50;;;;;;5056433;28;20009;-81
2022/08/20 09:44:54;;;;;;;6.85;1.60;;;45.40;12.30;;;;;;5056900;28;20109;-81
2022/08/20 09:47:20;;;;;;;6.28;1.50;;;44.50;11.80;;;;;;5056413;28;20013;-81
2022/08/20 09:49:46;;;;;;;6.00;1.50;;;44.30;10.60;;;;;;5059158;28;20018;-81
2022/08/20 09:52:27;;;;;;;7.20;1.55;;;43.80;12.40;;;;;;5059932;28;20038;-81
2022/08/20 09:55:00;;;;;;;5.78;1.58;;;43.00;11.80;;;;;;5060209;28;20029;-81
2022/08/20 09:57:27;;;;;;;5.95;1.75;;;44.00;13.20;;;;;;5054938;28;20045;-81
2022/08/20 09:59:56;;;;;;;4.20;1.60;;;44.20;12.50;;;;;;5053511;28;20036;-80
2022/08/20 10:02:22;;;;;;;5.72;1.40;;;45.40;12.20;;;;;;5059242;28;20005;-80
2022/08/20 10:04:48;;;;;;;4.82;1.38;;;43.50;11.00;;;;;;5060015;28;20036;-81
2022/08/20 10:07:13;;;;;;;5.97;1.98;;;44.30;11.70;;;;;;5059998;28;20149;-81
2022/08/20 10:09:39;;;;;;;6.72;1.50;;;44.90;9.60;;;;;;5060321;28;20036;-81
2022/08/20 10:12:05;;;;;;;3.58;1.13;;;45.30;10.20;;;;;;5059745;28;20014;-81
2022/08/20 10:14:31;;;;;;;5.40;1.40;;;45.40;7.80;;;;;;5059515;28;20030;-81
2022/08/20 10:16:58;;;;;;;7.50;1.75;;;45.40;7.30;;;;;;5059671;28;20026;-81
2022/08/20 10:19:25;;;;;;;3.78;0.95;;;42.10;10.20;;;;;;5059846;28;20026;-81
2022/08/20 10:21:52;;;;;;;5.95;1.40;;;43.50;10.10;;;;;;5059686;28;20009;-81
2022/08/20 10:24:18;;;;;;;6.57;1.10;;;43.50;9.40;;;;;;5059933;28;20073;-81
2022/08/20 10:26:44;;;;;;;5.43;1.45;;;43.20;8.80;;;;;;5060012;28;20037;-81
2022/08/20 10:29:10;;;;;;;5.05;1.30;;;38.10;10.30;;;;;;5059359;28;20033;-81
2022/08/20 10:31:36;;;;;;;6.95;1.52;;;37.70;11.60;;;;;;5059704;28;20090;-81
2022/08/20 10:34:01;;;;;;;5.25;1.63;;;38.00;13.70;;;;;;5059555;28;20021;-81
2022/08/20 10:36:27;;;;;;;3.90;1.40;;;36.30;13.60;;;;;;5059111;28;20033;-81
2022/08/20 10:38:53;;;;;;;4.45;1.85;;;38.10;15.80;;;;;;5059084;28;20037;-81
2022/08/20 10:41:21;;;;;;;4.70;1.40;;;40.00;14.50;;;;;;5058928;28;20045;-81
2022/08/20 10:43:46;;;;;;;3.80;1.30;;;41.60;14.20;;;;;;5058965;28;20013;-81
2022/08/20 10:46:13;;;;;;;4.47;1.40;;;41.90;11.90;;;;;;5058867;28;20014;-80
2022/08/20 10:48:38;;;;;;;3.33;1.45;;;42.00;12.10;;;;;;5058771;28;20020;-81
2022/08/20 10:51:04;;;;;;;5.32;1.52;;;41.50;10.90;;;;;;5058807;28;20013;-81
2022/08/20 10:53:29;;;;;;;5.85;1.60;;;41.60;11.90;;;;;;5058672;28;20040;-81
2022/08/20 10:55:56;;;;;;;5.47;1.33;;;41.50;11.70;;;;;;5058603;28;20016;-80
2022/08/20 10:58:23;;;;;;;6.07;1.80;;;40.40;11.50;;;;;;5058652;28;20045;-81
2022/08/20 11:00:48;;;;;;;5.28;1.45;;;39.20;12.30;;;;;;5057996;28;20018;-81
2022/08/20 11:03:14;;;;;;;4.38;1.15;;;37.60;12.30;;;;;;5058533;28;20021;-81
2022/08/20 11:05:40;;;;;;;4.72;1.48;;;36.00;13.60;;;;;;5058541;28;20018;-81
2022/08/20 11:08:05;;;;;;;3.85;1.30;;;35.00;15.40;;;;;;5058325;28;20021;-80
2022/08/20 11:10:33;;;;;;;6.97;1.50;;;34.00;15.80;;;;;;5058074;28;20025;-81
2022/08/20 11:13:01;;;;;;;6.90;1.98;;;32.30;17.30;;;;;;5058386;28;20209;-81
2022/08/20 11:15:27;;;;;;;5.28;1.60;;;32.10;18.60;;;;;;5045091;28;20033;-81
2022/08/20 11:17:52;;;;;;;5.88;1.88;;;30.80;19.80;;;;;;5058404;28;20081;-81
2022/08/20 11:20:20;;;;;;;7.68;1.60;;;30.80;21.40;;;;;;5058336;28;20009;-81
2022/08/20 11:22:46;;;;;;;4.80;1.55;;;31.10;23.30;;;;;;5058149;28;20024;-81
2022/08/20 11:25:12;;;;;;;7.18;1.30;;;30.90;23.30;;;;;;5045149;28;20018;-81
2022/08/20 11:27:43;;;;;;;5.15;1.33;;;31.10;23.10;;;;;;5058140;28;20032;-81
2022/08/20 11:30:13;;;;;;;4.57;1.35;;;30.10;24.40;;;;;;5057943;28;20006;-81
2022/08/20 11:32:38;;;;;;;5.78;1.75;;;30.20;26.00;;;;;;5057964;28;20085;-81
2022/08/20 11:35:05;;;;;;;4.50;1.35;;;30.20;26.10;;;;;;5057793;28;20067;-80
2022/08/20 11:37:31;;;;;;;8.05;1.50;;;30.00;26.60;;;;;;5057615;28;20068;-81
2022/08/20 11:39:57;;;;;;;4.60;1.48;;;29.30;28.00;;;;;;5057803;28;20045;-81
2022/08/20 11:42:23;;;;;;;6.63;1.60;;;29.40;28.90;;;;;;5056502;28;20029;-80
2022/08/20 11:44:48;;;;;;;5.28;1.40;;;29.90;29.10;;;;;;5046163;28;20041;-81
2022/08/20 11:47:24;;;;;;;2.88;1.27;;;29.60;29.90;;;;;;5057741;28;20018;-81
2022/08/20 11:50:18;;;;;;;3.80;0.90;;;29.10;30.50;;;;;;5057511;28;20017;-81
2022/08/20 11:52:44;;;;;;;6.50;1.60;;;29.30;30.60;;;;;;5042801;28;20085;-80
2022/08/20 11:55:11;;;;;;;8.30;1.80;;;29.80;31.70;;;;;;5057322;28;20010;-81
2022/08/20 11:57:41;;;;;;;4.70;1.67;;;29.80;31.90;;;;;;5057611;28;20017;-80
2022/08/20 12:00:12;;;;;;;4.35;1.10;;;29.60;33.00;;;;;;5057430;28;20052;-80
2022/08/20 12:02:38;;;;;;;6.00;1.55;;;29.60;36.40;;;;;;5057647;28;20013;-80
2022/08/20 12:05:04;;;;;;;4.57;0.93;;;29.30;32.80;;;;;;5057303;28;20263;-80
2022/08/20 12:07:29;;;;;;;3.13;1.17;;;29.10;34.10;;;;;;5057334;28;20018;-81
2022/08/20 12:09:55;;;;;;;5.07;1.17;;;28.70;34.30;;;;;;5057295;28;20045;-81
2022/08/20 12:12:22;;;;;;;5.35;1.25;;;29.20;34.70;;;;;;5056568;28;20013;-80
2022/08/20 12:14:49;;;;;;;4.03;1.35;;;29.80;34.20;;;;;;5057134;28;20060;-80
2022/08/20 12:17:20;;;;;;;4.97;1.30;;;29.30;33.20;;;;;;5057378;28;20089;-80
2022/08/20 12:19:46;;;;;;;2.55;1.10;;;29.80;35.10;;;;;;5057152;28;20052;-80
2022/08/20 12:22:12;;;;;;;3.67;1.30;;;29.40;36.70;;;;;;5057058;28;20010;-81
2022/08/20 12:24:37;;;;;;;4.85;1.42;;;29.20;34.10;;;;;;5057030;28;20018;-81
2022/08/20 12:27:11;;;;;;;4.85;1.30;;;29.50;34.20;;;;;;5057121;28;20036;-80
2022/08/20 12:29:38;;;;;;;4.20;1.50;;;30.00;35.80;;;;;;5057108;28;20006;-80
2022/08/20 12:32:05;;;;;;;3.75;1.35;;;30.10;35.90;;;;;;5047061;28;20006;-81
2022/08/20 12:34:35;;;;;;;3.50;1.25;;;30.40;35.40;;;;;;5054054;28;20025;-81
2022/08/20 12:37:04;;;;;;;2.90;1.23;;;29.60;34.40;;;;;;5056783;28;20029;-81
2022/08/20 12:39:33;;;;;;;4.47;1.38;;;30.20;33.00;;;;;;5056893;28;20048;-81
2022/08/20 12:42:01;;;;;;;3.78;1.17;;;30.10;33.80;;;;;;5056981;28;20036;-80
2022/08/20 12:44:28;;;;;;;3.25;1.40;;;30.50;33.90;;;;;;5039582;28;20032;-80
2022/08/20 12:47:14;;;;;;;3.22;1.10;;;30.40;35.00;;;;;;5056915;28;20052;-81
2022/08/20 12:49:44;;;;;;;5.05;1.45;;;30.10;33.10;;;;;;5045357;28;20025;-81
2022/08/20 12:52:10;;;;;;;5.00;1.40;;;29.50;34.80;;;;;;5056724;28;20022;-81
2022/08/20 12:54:36;;;;;;;3.80;1.13;;;28.90;34.80;;;;;;5056668;28;20037;-80
2022/08/20 12:57:02;;;;;;;4.53;1.27;;;29.20;34.00;;;;;;5056718;28;20028;-80
2022/08/20 12:59:27;;;;;;;2.95;1.23;;;29.40;33.80;;;;;;5056309;28;20048;-80